Аэропорт: Шпаковское. Ставрополь

ICAO: URMT

METAR:
2018/07/16 19:30
URMT 161930Z 30008MPS CAVOK 20/14 Q1007 R25/010070 NOSIG RMK QFE717
METAR:
2015/07/25 00:12
TAF TAF URMT 252300Z 2500/2609 12007G12MPS 9999 SCT020